DTTF/GAF METAR and TAF weather

Enter ICAO airport designator
Station Type Date Time Source
DTTF METAR 2023/01/30 11:00 UTC NOAA

DTTF 301100Z 06009KT 020V110 CAVOK 11/M00 Q1025 NOSIG


Station Type Date Time Source
DTTF Decoded METAR 2023/01/30 11:00 UTC NOAA

Gafsa, Tunisia (DTTF) 34-25N 008-49E 314M
Jan 30, 2023 - 06:00 AM EST / 2023.01.30 1100 UTC
Wind: from the ENE (060 degrees) at 10 MPH (9 KT) (direction variable):0
Visibility: greater than 7 mile(s):0
Temperature: 51 F (11 C)
Dew Point: 32 F (0 C)
Relative Humidity: 46%
Pressure (altimeter): 30.27 in. Hg (1025 hPa)
ob: DTTF 301100Z 06009KT 020V110 CAVOK 11/M00 Q1025 NOSIG
cycle: 11

Station Type Date Time Source
DTTF TAF 2022/12/13 22:00 UTC NOAA

TAF DTTF 132100Z 1322/1407 24007KT CAVOK
BECMG 1322/1324 VRB03KT

Example: see airport list